sensor_id;sensor_type;location;lat;lon;timestamp;temperature;humidity
70421;SHT31;57848;51.938;15.520;2023-05-10T00:01:05;10.56;60.56
70421;SHT31;57848;51.938;15.520;2023-05-10T00:03:31;10.55;60.75
70421;SHT31;57848;51.938;15.520;2023-05-10T00:05:56;10.54;60.71
70421;SHT31;57848;51.938;15.520;2023-05-10T00:08:22;10.49;60.60
70421;SHT31;57848;51.938;15.520;2023-05-10T00:10:47;10.49;60.74
70421;SHT31;57848;51.938;15.520;2023-05-10T00:13:13;10.46;60.63
70421;SHT31;57848;51.938;15.520;2023-05-10T00:15:38;10.45;60.40
70421;SHT31;57848;51.938;15.520;2023-05-10T00:18:04;10.45;60.54
70421;SHT31;57848;51.938;15.520;2023-05-10T00:20:29;10.41;60.64
70421;SHT31;57848;51.938;15.520;2023-05-10T00:22:54;10.40;60.70
70421;SHT31;57848;51.938;15.520;2023-05-10T00:25:20;10.37;61.06
70421;SHT31;57848;51.938;15.520;2023-05-10T00:27:46;10.34;60.65
70421;SHT31;57848;51.938;15.520;2023-05-10T00:30:12;10.34;60.84
70421;SHT31;57848;51.938;15.520;2023-05-10T00:32:37;10.32;60.83
70421;SHT31;57848;51.938;15.520;2023-05-10T00:35:03;10.34;60.98
70421;SHT31;57848;51.938;15.520;2023-05-10T00:37:28;10.24;61.56
70421;SHT31;57848;51.938;15.520;2023-05-10T00:39:54;10.22;61.32
70421;SHT31;57848;51.938;15.520;2023-05-10T00:42:19;10.24;61.14
70421;SHT31;57848;51.938;15.520;2023-05-10T00:44:45;10.22;61.09
70421;SHT31;57848;51.938;15.520;2023-05-10T00:47:11;10.24;60.81
70421;SHT31;57848;51.938;15.520;2023-05-10T00:49:37;10.22;61.26
70421;SHT31;57848;51.938;15.520;2023-05-10T00:52:03;10.18;61.16
70421;SHT31;57848;51.938;15.520;2023-05-10T00:54:28;10.14;61.04
70421;SHT31;57848;51.938;15.520;2023-05-10T00:56:54;10.20;61.00
70421;SHT31;57848;51.938;15.520;2023-05-10T00:59:22;10.11;61.68
70421;SHT31;57848;51.938;15.520;2023-05-10T01:01:47;10.08;61.77
70421;SHT31;57848;51.938;15.520;2023-05-10T01:04:13;10.04;62.12
70421;SHT31;57848;51.938;15.520;2023-05-10T01:06:40;10.04;62.19
70421;SHT31;57848;51.938;15.520;2023-05-10T01:09:05;10.00;62.04
70421;SHT31;57848;51.938;15.520;2023-05-10T01:11:33;9.98;62.22
70421;SHT31;57848;51.938;15.520;2023-05-10T01:13:59;9.91;62.51
70421;SHT31;57848;51.938;15.520;2023-05-10T01:16:24;9.86;62.61
70421;SHT31;57848;51.938;15.520;2023-05-10T01:18:51;9.80;62.80
70421;SHT31;57848;51.938;15.520;2023-05-10T01:32:57;9.67;63.31
70421;SHT31;57848;51.938;15.520;2023-05-10T01:41:14;9.57;63.68
70421;SHT31;57848;51.938;15.520;2023-05-10T01:43:59;9.50;63.67
70421;SHT31;57848;51.938;15.520;2023-05-10T01:46:31;9.57;63.93
70421;SHT31;57848;51.938;15.520;2023-05-10T01:49:01;9.45;64.26
70421;SHT31;57848;51.938;15.520;2023-05-10T01:51:41;9.43;64.41
70421;SHT31;57848;51.938;15.520;2023-05-10T01:54:11;9.40;64.39
70421;SHT31;57848;51.938;15.520;2023-05-10T01:56:39;9.38;64.70
70421;SHT31;57848;51.938;15.520;2023-05-10T01:59:09;9.39;64.36
70421;SHT31;57848;51.938;15.520;2023-05-10T02:01:37;9.38;64.68
70421;SHT31;57848;51.938;15.520;2023-05-10T02:04:05;9.32;64.59
70421;SHT31;57848;51.938;15.520;2023-05-10T02:06:31;9.32;64.90
70421;SHT31;57848;51.938;15.520;2023-05-10T02:08:58;9.34;64.74
70421;SHT31;57848;51.938;15.520;2023-05-10T02:11:26;9.29;64.87
70421;SHT31;57848;51.938;15.520;2023-05-10T02:13:53;9.21;64.99
70421;SHT31;57848;51.938;15.520;2023-05-10T02:16:26;9.22;65.26
70421;SHT31;57848;51.938;15.520;2023-05-10T02:18:52;9.22;65.22
70421;SHT31;57848;51.938;15.520;2023-05-10T02:21:20;9.19;65.38
70421;SHT31;57848;51.938;15.520;2023-05-10T02:23:46;9.18;65.63
70421;SHT31;57848;51.938;15.520;2023-05-10T02:26:14;9.16;65.65
70421;SHT31;57848;51.938;15.520;2023-05-10T02:28:42;9.14;65.77
70421;SHT31;57848;51.938;15.520;2023-05-10T02:31:08;9.18;65.50
70421;SHT31;57848;51.938;15.520;2023-05-10T02:33:38;9.12;65.72
70421;SHT31;57848;51.938;15.520;2023-05-10T02:36:07;9.16;65.43
70421;SHT31;57848;51.938;15.520;2023-05-10T02:38:36;9.12;65.82
70421;SHT31;57848;51.938;15.520;2023-05-10T02:41:02;9.08;66.17
70421;SHT31;57848;51.938;15.520;2023-05-10T02:43:30;9.08;65.93
70421;SHT31;57848;51.938;15.520;2023-05-10T02:45:56;9.04;66.29
70421;SHT31;57848;51.938;15.520;2023-05-10T02:48:22;9.03;66.27
70421;SHT31;57848;51.938;15.520;2023-05-10T02:50:50;9.01;66.56
70421;SHT31;57848;51.938;15.520;2023-05-10T02:53:22;8.97;66.25
70421;SHT31;57848;51.938;15.520;2023-05-10T02:55:51;8.94;66.69
70421;SHT31;57848;51.938;15.520;2023-05-10T02:58:17;8.94;66.65
70421;SHT31;57848;51.938;15.520;2023-05-10T03:00:45;8.89;66.73
70421;SHT31;57848;51.938;15.520;2023-05-10T03:03:11;8.83;67.10
70421;SHT31;57848;51.938;15.520;2023-05-10T03:05:36;8.80;67.18
70421;SHT31;57848;51.938;15.520;2023-05-10T03:08:03;8.77;67.39
70421;SHT31;57848;51.938;15.520;2023-05-10T03:10:30;8.80;67.45
70421;SHT31;57848;51.938;15.520;2023-05-10T03:13:07;8.71;67.75
70421;SHT31;57848;51.938;15.520;2023-05-10T03:18:27;8.67;68.46
70421;SHT31;57848;51.938;15.520;2023-05-10T03:20:57;8.61;68.18
70421;SHT31;57848;51.938;15.520;2023-05-10T03:23:32;8.60;68.15
70421;SHT31;57848;51.938;15.520;2023-05-10T03:25:59;8.63;68.48
70421;SHT31;57848;51.938;15.520;2023-05-10T03:28:26;8.63;68.34
70421;SHT31;57848;51.938;15.520;2023-05-10T03:30:53;8.63;68.57
70421;SHT31;57848;51.938;15.520;2023-05-10T03:33:19;8.57;68.55
70421;SHT31;57848;51.938;15.520;2023-05-10T03:35:46;8.59;68.86
70421;SHT31;57848;51.938;15.520;2023-05-10T03:38:12;8.57;68.66
70421;SHT31;57848;51.938;15.520;2023-05-10T03:40:37;8.53;69.05
70421;SHT31;57848;51.938;15.520;2023-05-10T03:43:03;8.54;68.98
70421;SHT31;57848;51.938;15.520;2023-05-10T03:45:29;8.54;69.12
70421;SHT31;57848;51.938;15.520;2023-05-10T03:47:56;8.50;69.11
70421;SHT31;57848;51.938;15.520;2023-05-10T03:50:22;8.50;69.28
70421;SHT31;57848;51.938;15.520;2023-05-10T03:52:47;8.49;69.38
70421;SHT31;57848;51.938;15.520;2023-05-10T03:55:13;8.52;69.42
70421;SHT31;57848;51.938;15.520;2023-05-10T03:57:38;8.53;69.31
70421;SHT31;57848;51.938;15.520;2023-05-10T04:00:05;8.56;69.54
70421;SHT31;57848;51.938;15.520;2023-05-10T04:02:39;8.57;69.76
70421;SHT31;57848;51.938;15.520;2023-05-10T04:05:05;8.56;69.50
70421;SHT31;57848;51.938;15.520;2023-05-10T04:07:30;8.64;69.44
70421;SHT31;57848;51.938;15.520;2023-05-10T04:09:56;8.57;69.38
70421;SHT31;57848;51.938;15.520;2023-05-10T04:12:21;8.64;69.44
70421;SHT31;57848;51.938;15.520;2023-05-10T04:14:46;8.63;69.48
70421;SHT31;57848;51.938;15.520;2023-05-10T04:17:12;8.67;69.70
70421;SHT31;57848;51.938;15.520;2023-05-10T04:19:37;8.64;69.68
70421;SHT31;57848;51.938;15.520;2023-05-10T04:22:03;8.71;69.31
70421;SHT31;57848;51.938;15.520;2023-05-10T04:24:29;8.71;69.35
70421;SHT31;57848;51.938;15.520;2023-05-10T04:26:55;8.77;69.67
70421;SHT31;57848;51.938;15.520;2023-05-10T04:29:20;8.75;69.35
70421;SHT31;57848;51.938;15.520;2023-05-10T04:31:46;8.85;69.18
70421;SHT31;57848;51.938;15.520;2023-05-10T04:34:11;8.87;69.02
70421;SHT31;57848;51.938;15.520;2023-05-10T04:36:36;8.97;69.10
70421;SHT31;57848;51.938;15.520;2023-05-10T04:39:03;9.01;68.93
70421;SHT31;57848;51.938;15.520;2023-05-10T04:41:28;9.00;69.11
70421;SHT31;57848;51.938;15.520;2023-05-10T04:43:54;9.08;69.11
70421;SHT31;57848;51.938;15.520;2023-05-10T04:46:19;9.14;68.64
70421;SHT31;57848;51.938;15.520;2023-05-10T04:48:45;9.15;69.18
70421;SHT31;57848;51.938;15.520;2023-05-10T04:51:10;9.22;69.00
70421;SHT31;57848;51.938;15.520;2023-05-10T04:53:36;9.28;68.63
70421;SHT31;57848;51.938;15.520;2023-05-10T04:56:01;9.34;68.48
70421;SHT31;57848;51.938;15.520;2023-05-10T04:58:26;9.42;68.18
70421;SHT31;57848;51.938;15.520;2023-05-10T05:00:52;9.46;67.98
70421;SHT31;57848;51.938;15.520;2023-05-10T05:03:17;9.55;68.17
70421;SHT31;57848;51.938;15.520;2023-05-10T05:05:43;9.66;67.68
70421;SHT31;57848;51.938;15.520;2023-05-10T05:08:09;9.67;67.86
70421;SHT31;57848;51.938;15.520;2023-05-10T05:10:34;9.79;67.22
70421;SHT31;57848;51.938;15.520;2023-05-10T05:13:00;9.86;66.96
70421;SHT31;57848;51.938;15.520;2023-05-10T05:15:25;9.87;67.55
70421;SHT31;57848;51.938;15.520;2023-05-10T05:17:51;10.03;66.95
70421;SHT31;57848;51.938;15.520;2023-05-10T05:20:16;10.07;67.24
70421;SHT31;57848;51.938;15.520;2023-05-10T05:22:42;10.05;67.56
70421;SHT31;57848;51.938;15.520;2023-05-10T05:25:08;10.24;66.53
70421;SHT31;57848;51.938;15.520;2023-05-10T05:27:33;10.27;66.36
70421;SHT31;57848;51.938;15.520;2023-05-10T05:29:58;10.45;65.73
70421;SHT31;57848;51.938;15.520;2023-05-10T05:32:24;10.54;65.78
70421;SHT31;57848;51.938;15.520;2023-05-10T05:34:50;10.65;65.12
70421;SHT31;57848;51.938;15.520;2023-05-10T05:37:18;10.69;65.28
70421;SHT31;57848;51.938;15.520;2023-05-10T05:39:43;10.77;65.07
70421;SHT31;57848;51.938;15.520;2023-05-10T05:42:09;10.91;64.52
70421;SHT31;57848;51.938;15.520;2023-05-10T05:44:35;10.96;64.42
70421;SHT31;57848;51.938;15.520;2023-05-10T05:47:01;11.10;64.27
70421;SHT31;57848;51.938;15.520;2023-05-10T05:49:26;11.12;63.88
70421;SHT31;57848;51.938;15.520;2023-05-10T05:51:51;11.19;63.66
70421;SHT31;57848;51.938;15.520;2023-05-10T05:54:17;11.28;64.21
70421;SHT31;57848;51.938;15.520;2023-05-10T05:56:42;11.33;63.54
70421;SHT31;57848;51.938;15.520;2023-05-10T05:59:09;11.44;63.80
70421;SHT31;57848;51.938;15.520;2023-05-10T06:01:34;11.54;63.22
70421;SHT31;57848;51.938;15.520;2023-05-10T06:04:00;11.65;62.98
70421;SHT31;57848;51.938;15.520;2023-05-10T06:06:25;11.70;63.26
70421;SHT31;57848;51.938;15.520;2023-05-10T06:08:50;11.81;63.08
70421;SHT31;57848;51.938;15.520;2023-05-10T06:11:16;11.93;62.68
70421;SHT31;57848;51.938;15.520;2023-05-10T06:13:43;12.08;61.68
70421;SHT31;57848;51.938;15.520;2023-05-10T06:16:08;12.12;61.91
70421;SHT31;57848;51.938;15.520;2023-05-10T06:18:33;12.15;61.88
70421;SHT31;57848;51.938;15.520;2023-05-10T06:20:59;12.19;61.59
70421;SHT31;57848;51.938;15.520;2023-05-10T06:23:24;12.30;61.55
70421;SHT31;57848;51.938;15.520;2023-05-10T06:25:51;12.42;60.93
70421;SHT31;57848;51.938;15.520;2023-05-10T06:28:16;12.53;61.03
70421;SHT31;57848;51.938;15.520;2023-05-10T06:30:42;12.57;60.95
70421;SHT31;57848;51.938;15.520;2023-05-10T06:33:07;12.67;60.91
70421;SHT31;57848;51.938;15.520;2023-05-10T06:35:33;12.71;60.60
70421;SHT31;57848;51.938;15.520;2023-05-10T06:37:58;12.80;59.90
70421;SHT31;57848;51.938;15.520;2023-05-10T06:40:24;12.83;59.88
70421;SHT31;57848;51.938;15.520;2023-05-10T06:42:49;12.90;60.35
70421;SHT31;57848;51.938;15.520;2023-05-10T06:45:15;13.07;60.05
70421;SHT31;57848;51.938;15.520;2023-05-10T06:47:40;13.14;59.37
70421;SHT31;57848;51.938;15.520;2023-05-10T06:50:10;13.19;58.93
70421;SHT31;57848;51.938;15.520;2023-05-10T06:52:36;13.28;59.45
70421;SHT31;57848;51.938;15.520;2023-05-10T06:55:03;13.42;59.07
70421;SHT31;57848;51.938;15.520;2023-05-10T06:57:29;13.42;58.57
70421;SHT31;57848;51.938;15.520;2023-05-10T06:59:55;13.49;58.49
70421;SHT31;57848;51.938;15.520;2023-05-10T07:02:21;13.43;58.21
70421;SHT31;57848;51.938;15.520;2023-05-10T07:04:47;13.51;59.43
70421;SHT31;57848;51.938;15.520;2023-05-10T07:07:13;13.58;58.82
70421;SHT31;57848;51.938;15.520;2023-05-10T07:09:39;13.69;58.87
70421;SHT31;57848;51.938;15.520;2023-05-10T07:12:04;13.79;58.65
70421;SHT31;57848;51.938;15.520;2023-05-10T07:14:29;13.81;59.24
70421;SHT31;57848;51.938;15.520;2023-05-10T07:16:55;13.80;58.69
70421;SHT31;57848;51.938;15.520;2023-05-10T07:19:20;13.87;58.92
70421;SHT31;57848;51.938;15.520;2023-05-10T07:21:46;13.97;58.92
70421;SHT31;57848;51.938;15.520;2023-05-10T07:24:11;14.11;58.41
70421;SHT31;57848;51.938;15.520;2023-05-10T07:26:36;14.20;58.25
70421;SHT31;57848;51.938;15.520;2023-05-10T07:29:02;14.25;58.03
70421;SHT31;57848;51.938;15.520;2023-05-10T07:31:28;14.32;58.26
70421;SHT31;57848;51.938;15.520;2023-05-10T07:33:53;14.45;58.20
70421;SHT31;57848;51.938;15.520;2023-05-10T07:36:18;14.51;58.00
70421;SHT31;57848;51.938;15.520;2023-05-10T07:38:44;14.67;58.02
70421;SHT31;57848;51.938;15.520;2023-05-10T07:41:10;14.78;58.02
70421;SHT31;57848;51.938;15.520;2023-05-10T07:43:36;14.79;57.48
70421;SHT31;57848;51.938;15.520;2023-05-10T07:46:01;14.90;57.09
70421;SHT31;57848;51.938;15.520;2023-05-10T07:48:26;15.00;56.59
70421;SHT31;57848;51.938;15.520;2023-05-10T07:50:52;14.99;56.92
70421;SHT31;57848;51.938;15.520;2023-05-10T07:53:17;14.99;56.70
70421;SHT31;57848;51.938;15.520;2023-05-10T07:55:44;15.00;56.77
70421;SHT31;57848;51.938;15.520;2023-05-10T07:58:09;15.03;56.83
70421;SHT31;57848;51.938;15.520;2023-05-10T08:00:34;15.17;56.53
70421;SHT31;57848;51.938;15.520;2023-05-10T08:03:00;15.22;55.75
70421;SHT31;57848;51.938;15.520;2023-05-10T08:05:25;15.29;56.45
70421;SHT31;57848;51.938;15.520;2023-05-10T08:07:50;15.36;56.02
70421;SHT31;57848;51.938;15.520;2023-05-10T08:10:16;15.39;56.07
70421;SHT31;57848;51.938;15.520;2023-05-10T08:12:42;15.39;56.11
70421;SHT31;57848;51.938;15.520;2023-05-10T08:15:08;15.54;56.19
70421;SHT31;57848;51.938;15.520;2023-05-10T08:17:33;15.74;56.30
70421;SHT31;57848;51.938;15.520;2023-05-10T08:19:58;15.78;55.69
70421;SHT31;57848;51.938;15.520;2023-05-10T08:22:24;15.84;54.96
70421;SHT31;57848;51.938;15.520;2023-05-10T08:24:49;15.87;55.25
70421;SHT31;57848;51.938;15.520;2023-05-10T08:27:15;15.97;55.26
70421;SHT31;57848;51.938;15.520;2023-05-10T08:29:40;16.08;55.19
70421;SHT31;57848;51.938;15.520;2023-05-10T08:32:05;16.08;54.80
70421;SHT31;57848;51.938;15.520;2023-05-10T08:34:31;16.19;54.87
70421;SHT31;57848;51.938;15.520;2023-05-10T08:36:56;16.23;54.43
70421;SHT31;57848;51.938;15.520;2023-05-10T08:39:22;16.29;55.30
70421;SHT31;57848;51.938;15.520;2023-05-10T08:41:51;16.36;53.96
70421;SHT31;57848;51.938;15.520;2023-05-10T08:44:17;16.32;54.24
70421;SHT31;57848;51.938;15.520;2023-05-10T08:46:46;16.45;54.91
70421;SHT31;57848;51.938;15.520;2023-05-10T08:49:13;16.63;53.89
70421;SHT31;57848;51.938;15.520;2023-05-10T08:51:44;16.80;53.85
70421;SHT31;57848;51.938;15.520;2023-05-10T08:54:12;16.81;53.59
70421;SHT31;57848;51.938;15.520;2023-05-10T08:56:38;16.90;53.72
70421;SHT31;57848;51.938;15.520;2023-05-10T08:59:03;16.95;53.18
70421;SHT31;57848;51.938;15.520;2023-05-10T09:01:31;17.10;53.76
70421;SHT31;57848;51.938;15.520;2023-05-10T09:03:58;17.19;52.97
70421;SHT31;57848;51.938;15.520;2023-05-10T09:06:23;17.18;52.22
70421;SHT31;57848;51.938;15.520;2023-05-10T09:08:49;17.19;52.36
70421;SHT31;57848;51.938;15.520;2023-05-10T09:11:15;17.18;52.88
70421;SHT31;57848;51.938;15.520;2023-05-10T09:13:41;17.43;53.16
70421;SHT31;57848;51.938;15.520;2023-05-10T09:16:07;17.35;52.40
70421;SHT31;57848;51.938;15.520;2023-05-10T09:18:32;17.35;52.01
70421;SHT31;57848;51.938;15.520;2023-05-10T09:20:57;17.22;52.17
70421;SHT31;57848;51.938;15.520;2023-05-10T09:23:23;17.25;52.74
70421;SHT31;57848;51.938;15.520;2023-05-10T09:26:04;17.29;52.65
70421;SHT31;57848;51.938;15.520;2023-05-10T09:28:55;17.45;52.14
70421;SHT31;57848;51.938;15.520;2023-05-10T09:31:21;17.61;52.27
70421;SHT31;57848;51.938;15.520;2023-05-10T09:33:48;17.70;50.80
70421;SHT31;57848;51.938;15.520;2023-05-10T09:36:14;17.83;51.71
70421;SHT31;57848;51.938;15.520;2023-05-10T09:38:51;17.94;49.77
70421;SHT31;57848;51.938;15.520;2023-05-10T09:41:22;17.87;49.87
70421;SHT31;57848;51.938;15.520;2023-05-10T09:43:49;17.75;50.06
70421;SHT31;57848;51.938;15.520;2023-05-10T09:46:15;17.75;51.17
70421;SHT31;57848;51.938;15.520;2023-05-10T09:48:43;17.70;50.58
70421;SHT31;57848;51.938;15.520;2023-05-10T09:51:09;17.86;51.17
70421;SHT31;57848;51.938;15.520;2023-05-10T09:53:34;17.97;50.73
70421;SHT31;57848;51.938;15.520;2023-05-10T09:56:00;18.01;49.71
70421;SHT31;57848;51.938;15.520;2023-05-10T09:58:25;18.20;50.10
70421;SHT31;57848;51.938;15.520;2023-05-10T10:00:50;18.47;49.60
70421;SHT31;57848;51.938;15.520;2023-05-10T10:03:19;18.54;49.36
70421;SHT31;57848;51.938;15.520;2023-05-10T10:05:46;18.64;48.70
70421;SHT31;57848;51.938;15.520;2023-05-10T10:08:12;18.76;48.41
70421;SHT31;57848;51.938;15.520;2023-05-10T10:10:38;18.91;49.56
70421;SHT31;57848;51.938;15.520;2023-05-10T10:13:06;19.24;48.03
70421;SHT31;57848;51.938;15.520;2023-05-10T10:15:32;19.26;48.40
70421;SHT31;57848;51.938;15.520;2023-05-10T10:17:58;19.75;47.48
70421;SHT31;57848;51.938;15.520;2023-05-10T10:20:25;20.50;45.43
70421;SHT31;57848;51.938;15.520;2023-05-10T10:22:51;22.02;42.18
70421;SHT31;57848;51.938;15.520;2023-05-10T10:25:17;22.60;41.01
70421;SHT31;57848;51.938;15.520;2023-05-10T10:35:31;24.25;39.05
70421;SHT31;57848;51.938;15.520;2023-05-10T10:37:57;24.87;37.77
70421;SHT31;57848;51.938;15.520;2023-05-10T10:40:29;25.06;37.32
70421;SHT31;57848;51.938;15.520;2023-05-10T10:42:56;25.07;38.00
70421;SHT31;57848;51.938;15.520;2023-05-10T10:45:23;25.68;36.35
70421;SHT31;57848;51.938;15.520;2023-05-10T10:47:48;23.94;37.83
70421;SHT31;57848;51.938;15.520;2023-05-10T10:50:15;25.09;36.74
70421;SHT31;57848;51.938;15.520;2023-05-10T10:52:45;25.67;36.44
70421;SHT31;57848;51.938;15.520;2023-05-10T10:55:18;25.34;36.34
70421;SHT31;57848;51.938;15.520;2023-05-10T10:57:53;24.56;37.52
70421;SHT31;57848;51.938;15.520;2023-05-10T11:00:38;24.52;37.78
70421;SHT31;57848;51.938;15.520;2023-05-10T11:03:09;24.42;37.46
70421;SHT31;57848;51.938;15.520;2023-05-10T11:05:48;24.28;38.11
70421;SHT31;57848;51.938;15.520;2023-05-10T11:08:30;25.06;37.07
70421;SHT31;57848;51.938;15.520;2023-05-10T11:13:53;26.10;35.60
70421;SHT31;57848;51.938;15.520;2023-05-10T11:16:27;24.96;36.76
70421;SHT31;57848;51.938;15.520;2023-05-10T11:19:07;24.17;38.22
70421;SHT31;57848;51.938;15.520;2023-05-10T11:21:34;24.56;37.33
70421;SHT31;57848;51.938;15.520;2023-05-10T11:24:13;23.73;38.38
70421;SHT31;57848;51.938;15.520;2023-05-10T11:26:39;24.43;38.40
70421;SHT31;57848;51.938;15.520;2023-05-10T11:29:04;24.35;38.07
70421;SHT31;57848;51.938;15.520;2023-05-10T11:31:30;25.26;37.65
70421;SHT31;57848;51.938;15.520;2023-05-10T11:33:57;26.02;35.60
70421;SHT31;57848;51.938;15.520;2023-05-10T11:36:25;25.67;36.09
70421;SHT31;57848;51.938;15.520;2023-05-10T11:38:51;24.11;38.12
70421;SHT31;57848;51.938;15.520;2023-05-10T11:41:19;25.00;37.06
70421;SHT31;57848;51.938;15.520;2023-05-10T11:43:48;25.34;36.15
70421;SHT31;57848;51.938;15.520;2023-05-10T11:46:14;25.37;35.98
70421;SHT31;57848;51.938;15.520;2023-05-10T11:48:42;24.99;36.48
70421;SHT31;57848;51.938;15.520;2023-05-10T11:51:08;24.41;37.20
70421;SHT31;57848;51.938;15.520;2023-05-10T11:53:34;23.49;38.12
70421;SHT31;57848;51.938;15.520;2023-05-10T11:56:07;22.61;40.17
70421;SHT31;57848;51.938;15.520;2023-05-10T11:58:33;25.40;36.52
70421;SHT31;57848;51.938;15.520;2023-05-10T12:01:02;27.34;33.90
70421;SHT31;57848;51.938;15.520;2023-05-10T12:03:28;26.29;34.95
70421;SHT31;57848;51.938;15.520;2023-05-10T12:05:54;26.78;35.10
70421;SHT31;57848;51.938;15.520;2023-05-10T12:08:22;27.05;33.71
70421;SHT31;57848;51.938;15.520;2023-05-10T12:10:48;27.45;34.26
70421;SHT31;57848;51.938;15.520;2023-05-10T12:13:14;27.12;33.57
70421;SHT31;57848;51.938;15.520;2023-05-10T12:15:40;26.61;35.03
70421;SHT31;57848;51.938;15.520;2023-05-10T12:18:08;26.20;35.63
70421;SHT31;57848;51.938;15.520;2023-05-10T12:20:34;27.12;33.44
70421;SHT31;57848;51.938;15.520;2023-05-10T12:22:59;28.14;32.73
70421;SHT31;57848;51.938;15.520;2023-05-10T12:25:35;28.10;31.89
70421;SHT31;57848;51.938;15.520;2023-05-10T12:28:04;27.38;33.70
70421;SHT31;57848;51.938;15.520;2023-05-10T12:30:32;27.79;32.77
70421;SHT31;57848;51.938;15.520;2023-05-10T12:33:08;27.38;32.87
70421;SHT31;57848;51.938;15.520;2023-05-10T12:35:54;26.53;34.82
70421;SHT31;57848;51.938;15.520;2023-05-10T12:40:58;28.95;32.05
70421;SHT31;57848;51.938;15.520;2023-05-10T12:43:24;28.92;31.13
70421;SHT31;57848;51.938;15.520;2023-05-10T12:45:49;29.03;31.41
70421;SHT31;57848;51.938;15.520;2023-05-10T12:48:15;29.84;30.32
70421;SHT31;57848;51.938;15.520;2023-05-10T12:50:40;29.13;31.48
70421;SHT31;57848;51.938;15.520;2023-05-10T12:53:06;30.40;30.83
70421;SHT31;57848;51.938;15.520;2023-05-10T12:55:31;29.91;30.54
70421;SHT31;57848;51.938;15.520;2023-05-10T12:57:57;29.84;30.07
70421;SHT31;57848;51.938;15.520;2023-05-10T13:00:22;27.77;32.59
70421;SHT31;57848;51.938;15.520;2023-05-10T13:02:48;27.76;33.39
70421;SHT31;57848;51.938;15.520;2023-05-10T13:05:13;28.62;32.61
70421;SHT31;57848;51.938;15.520;2023-05-10T13:07:38;28.95;31.78
70421;SHT31;57848;51.938;15.520;2023-05-10T13:10:05;28.85;32.13
70421;SHT31;57848;51.938;15.520;2023-05-10T13:12:31;28.71;31.49
70421;SHT31;57848;51.938;15.520;2023-05-10T13:14:56;29.44;30.98
70421;SHT31;57848;51.938;15.520;2023-05-10T13:17:22;29.42;31.10
70421;SHT31;57848;51.938;15.520;2023-05-10T13:19:47;29.06;30.98
70421;SHT31;57848;51.938;15.520;2023-05-10T13:22:12;29.07;31.36
70421;SHT31;57848;51.938;15.520;2023-05-10T13:24:38;28.83;31.98
70421;SHT31;57848;51.938;15.520;2023-05-10T13:27:03;27.83;32.56
70421;SHT31;57848;51.938;15.520;2023-05-10T13:29:28;28.07;32.42
70421;SHT31;57848;51.938;15.520;2023-05-10T13:31:54;28.20;32.35
70421;SHT31;57848;51.938;15.520;2023-05-10T13:34:19;28.08;32.01
70421;SHT31;57848;51.938;15.520;2023-05-10T13:36:47;27.59;33.18
70421;SHT31;57848;51.938;15.520;2023-05-10T13:39:14;27.15;33.57
70421;SHT31;57848;51.938;15.520;2023-05-10T13:41:39;26.65;34.81
70421;SHT31;57848;51.938;15.520;2023-05-10T13:44:04;26.39;35.62
70421;SHT31;57848;51.938;15.520;2023-05-10T13:46:30;25.58;35.45
70421;SHT31;57848;51.938;15.520;2023-05-10T13:48:56;25.68;35.40
70421;SHT31;57848;51.938;15.520;2023-05-10T13:51:22;25.06;36.14
70421;SHT31;57848;51.938;15.520;2023-05-10T13:53:47;24.89;36.75
70421;SHT31;57848;51.938;15.520;2023-05-10T13:59:53;24.47;37.48
70421;SHT31;57848;51.938;15.520;2023-05-10T14:02:19;24.35;38.28
70421;SHT31;57848;51.938;15.520;2023-05-10T14:04:45;24.35;37.41
70421;SHT31;57848;51.938;15.520;2023-05-10T14:07:11;23.91;38.20
70421;SHT31;57848;51.938;15.520;2023-05-10T14:09:36;23.80;38.15
70421;SHT31;57848;51.938;15.520;2023-05-10T14:12:02;23.69;38.41
70421;SHT31;57848;51.938;15.520;2023-05-10T14:14:27;23.49;38.62
70421;SHT31;57848;51.938;15.520;2023-05-10T14:16:54;23.49;38.77
70421;SHT31;57848;51.938;15.520;2023-05-10T14:19:19;23.56;39.19
70421;SHT31;57848;51.938;15.520;2023-05-10T14:21:44;23.34;38.44
70421;SHT31;57848;51.938;15.520;2023-05-10T14:24:10;23.11;38.47
70421;SHT31;57848;51.938;15.520;2023-05-10T14:26:35;23.23;39.62
70421;SHT31;57848;51.938;15.520;2023-05-10T14:29:01;23.23;39.05
70421;SHT31;57848;51.938;15.520;2023-05-10T14:31:26;23.18;38.69
70421;SHT31;57848;51.938;15.520;2023-05-10T14:33:52;23.02;39.25
70421;SHT31;57848;51.938;15.520;2023-05-10T14:36:18;23.01;38.86
70421;SHT31;57848;51.938;15.520;2023-05-10T14:38:43;22.78;39.55
70421;SHT31;57848;51.938;15.520;2023-05-10T14:41:08;22.67;40.23
70421;SHT31;57848;51.938;15.520;2023-05-10T14:43:34;22.76;40.51
70421;SHT31;57848;51.938;15.520;2023-05-10T14:45:59;22.71;40.26
70421;SHT31;57848;51.938;15.520;2023-05-10T14:48:24;22.67;39.90
70421;SHT31;57848;51.938;15.520;2023-05-10T14:50:50;22.62;39.33
70421;SHT31;57848;51.938;15.520;2023-05-10T14:56:58;22.57;40.17
70421;SHT31;57848;51.938;15.520;2023-05-10T14:59:24;22.39;40.08
70421;SHT31;57848;51.938;15.520;2023-05-10T15:01:49;22.12;40.01
70421;SHT31;57848;51.938;15.520;2023-05-10T15:04:15;22.17;39.52
70421;SHT31;57848;51.938;15.520;2023-05-10T15:06:41;22.00;39.17
70421;SHT31;57848;51.938;15.520;2023-05-10T15:09:07;21.86;39.21
70421;SHT31;57848;51.938;15.520;2023-05-10T15:11:32;22.06;39.37
70421;SHT31;57848;51.938;15.520;2023-05-10T15:13:57;22.00;38.94
70421;SHT31;57848;51.938;15.520;2023-05-10T15:16:23;22.07;39.61
70421;SHT31;57848;51.938;15.520;2023-05-10T15:18:48;22.06;39.93
70421;SHT31;57848;51.938;15.520;2023-05-10T15:21:14;22.00;39.59
70421;SHT31;57848;51.938;15.520;2023-05-10T15:23:39;21.83;40.06
70421;SHT31;57848;51.938;15.520;2023-05-10T15:26:05;21.89;40.24
70421;SHT31;57848;51.938;15.520;2023-05-10T15:28:30;21.75;40.15
70421;SHT31;57848;51.938;15.520;2023-05-10T15:30:55;21.78;40.78
70421;SHT31;57848;51.938;15.520;2023-05-10T15:33:21;21.78;40.80
70421;SHT31;57848;51.938;15.520;2023-05-10T15:35:47;21.79;40.65
70421;SHT31;57848;51.938;15.520;2023-05-10T15:38:12;21.69;41.06
70421;SHT31;57848;51.938;15.520;2023-05-10T15:40:37;21.56;40.68
70421;SHT31;57848;51.938;15.520;2023-05-10T15:43:03;21.56;40.72
70421;SHT31;57848;51.938;15.520;2023-05-10T15:45:30;21.27;41.48
70421;SHT31;57848;51.938;15.520;2023-05-10T15:47:55;21.24;41.84
70421;SHT31;57848;51.938;15.520;2023-05-10T15:50:20;21.03;42.31
70421;SHT31;57848;51.938;15.520;2023-05-10T15:52:46;21.15;42.14
70421;SHT31;57848;51.938;15.520;2023-05-10T15:55:11;21.20;41.51
70421;SHT31;57848;51.938;15.520;2023-05-10T15:57:41;21.28;41.61